sensor_id;sensor_type;location;lat;lon;timestamp;P1;durP1;ratioP1;P2;durP2;ratioP2
14066;SDS011;7108;42.684;23.350;2023-07-13T00:01:44;121.87;;;63.97;;
14066;SDS011;7108;42.684;23.350;2023-07-13T00:04:11;129.27;;;65.30;;
14066;SDS011;7108;42.684;23.350;2023-07-13T00:06:37;142.07;;;67.30;;
14066;SDS011;7108;42.684;23.350;2023-07-13T00:09:02;117.40;;;64.03;;
14066;SDS011;7108;42.684;23.350;2023-07-13T00:11:28;132.40;;;65.97;;
14066;SDS011;7108;42.684;23.350;2023-07-13T00:13:53;124.47;;;64.47;;
14066;SDS011;7108;42.684;23.350;2023-07-13T00:16:19;137.90;;;66.97;;
14066;SDS011;7108;42.684;23.350;2023-07-13T00:18:45;133.97;;;65.87;;
14066;SDS011;7108;42.684;23.350;2023-07-13T00:21:11;120.53;;;65.60;;
14066;SDS011;7108;42.684;23.350;2023-07-13T00:23:38;122.80;;;66.13;;
14066;SDS011;7108;42.684;23.350;2023-07-13T00:26:08;125.60;;;65.30;;
14066;SDS011;7108;42.684;23.350;2023-07-13T00:28:35;125.10;;;65.80;;
14066;SDS011;7108;42.684;23.350;2023-07-13T00:31:02;119.80;;;65.57;;
14066;SDS011;7108;42.684;23.350;2023-07-13T00:33:28;136.17;;;68.60;;
14066;SDS011;7108;42.684;23.350;2023-07-13T00:35:57;127.57;;;65.90;;
14066;SDS011;7108;42.684;23.350;2023-07-13T00:38:22;126.03;;;67.10;;
14066;SDS011;7108;42.684;23.350;2023-07-13T00:40:48;148.27;;;68.43;;
14066;SDS011;7108;42.684;23.350;2023-07-13T00:43:15;137.90;;;68.17;;
14066;SDS011;7108;42.684;23.350;2023-07-13T00:48:07;121.97;;;66.17;;
14066;SDS011;7108;42.684;23.350;2023-07-13T00:50:33;119.90;;;65.23;;
14066;SDS011;7108;42.684;23.350;2023-07-13T00:52:58;139.90;;;68.20;;
14066;SDS011;7108;42.684;23.350;2023-07-13T00:55:24;141.73;;;67.03;;
14066;SDS011;7108;42.684;23.350;2023-07-13T00:57:50;138.80;;;68.83;;
14066;SDS011;7108;42.684;23.350;2023-07-13T01:00:15;136.40;;;68.33;;
14066;SDS011;7108;42.684;23.350;2023-07-13T01:02:42;115.40;;;64.33;;
14066;SDS011;7108;42.684;23.350;2023-07-13T01:07:42;127.73;;;67.70;;
14066;SDS011;7108;42.684;23.350;2023-07-13T01:10:09;117.43;;;65.27;;
14066;SDS011;7108;42.684;23.350;2023-07-13T01:12:36;119.13;;;66.57;;
14066;SDS011;7108;42.684;23.350;2023-07-13T01:15:02;121.50;;;66.83;;
14066;SDS011;7108;42.684;23.350;2023-07-13T01:17:29;150.13;;;71.43;;
14066;SDS011;7108;42.684;23.350;2023-07-13T01:19:58;128.10;;;68.40;;
14066;SDS011;7108;42.684;23.350;2023-07-13T01:22:23;137.97;;;69.97;;
14066;SDS011;7108;42.684;23.350;2023-07-13T01:24:51;143.33;;;70.87;;
14066;SDS011;7108;42.684;23.350;2023-07-13T01:27:20;161.53;;;73.40;;
14066;SDS011;7108;42.684;23.350;2023-07-13T01:29:48;142.20;;;70.33;;
14066;SDS011;7108;42.684;23.350;2023-07-13T01:32:18;141.70;;;69.50;;
14066;SDS011;7108;42.684;23.350;2023-07-13T01:34:46;146.00;;;71.23;;
14066;SDS011;7108;42.684;23.350;2023-07-13T01:37:12;121.20;;;67.00;;
14066;SDS011;7108;42.684;23.350;2023-07-13T01:39:37;115.60;;;67.40;;
14066;SDS011;7108;42.684;23.350;2023-07-13T01:42:03;121.97;;;68.67;;
14066;SDS011;7108;42.684;23.350;2023-07-13T01:44:28;132.77;;;67.63;;
14066;SDS011;7108;42.684;23.350;2023-07-13T01:46:54;135.07;;;67.97;;
14066;SDS011;7108;42.684;23.350;2023-07-13T01:49:20;145.47;;;71.60;;
14066;SDS011;7108;42.684;23.350;2023-07-13T01:51:45;140.83;;;70.87;;
14066;SDS011;7108;42.684;23.350;2023-07-13T01:54:10;122.10;;;65.60;;
14066;SDS011;7108;42.684;23.350;2023-07-13T01:56:36;118.90;;;66.33;;
14066;SDS011;7108;42.684;23.350;2023-07-13T01:59:01;121.07;;;66.33;;
14066;SDS011;7108;42.684;23.350;2023-07-13T02:01:27;148.40;;;72.60;;
14066;SDS011;7108;42.684;23.350;2023-07-13T02:03:52;132.30;;;67.97;;
14066;SDS011;7108;42.684;23.350;2023-07-13T02:06:17;155.33;;;72.30;;
14066;SDS011;7108;42.684;23.350;2023-07-13T02:08:43;121.87;;;67.90;;
14066;SDS011;7108;42.684;23.350;2023-07-13T02:11:08;117.80;;;65.77;;
14066;SDS011;7108;42.684;23.350;2023-07-13T02:13:34;123.40;;;68.60;;
14066;SDS011;7108;42.684;23.350;2023-07-13T02:16:00;139.90;;;70.37;;
14066;SDS011;7108;42.684;23.350;2023-07-13T02:18:26;163.17;;;73.73;;
14066;SDS011;7108;42.684;23.350;2023-07-13T02:20:52;149.27;;;71.23;;
14066;SDS011;7108;42.684;23.350;2023-07-13T02:23:18;149.57;;;71.10;;
14066;SDS011;7108;42.684;23.350;2023-07-13T02:25:45;114.73;;;67.40;;
14066;SDS011;7108;42.684;23.350;2023-07-13T02:28:11;125.33;;;68.87;;
14066;SDS011;7108;42.684;23.350;2023-07-13T02:30:36;122.00;;;69.23;;
14066;SDS011;7108;42.684;23.350;2023-07-13T02:33:03;123.97;;;65.87;;
14066;SDS011;7108;42.684;23.350;2023-07-13T02:35:29;131.27;;;69.63;;
14066;SDS011;7108;42.684;23.350;2023-07-13T02:37:55;135.20;;;69.50;;
14066;SDS011;7108;42.684;23.350;2023-07-13T02:40:21;152.60;;;71.47;;
14066;SDS011;7108;42.684;23.350;2023-07-13T02:42:47;145.30;;;71.30;;
14066;SDS011;7108;42.684;23.350;2023-07-13T02:45:12;135.60;;;69.43;;
14066;SDS011;7108;42.684;23.350;2023-07-13T02:47:39;116.23;;;69.90;;
14066;SDS011;7108;42.684;23.350;2023-07-13T02:50:05;118.53;;;67.83;;
14066;SDS011;7108;42.684;23.350;2023-07-13T02:52:31;129.20;;;70.07;;
14066;SDS011;7108;42.684;23.350;2023-07-13T02:54:57;138.03;;;70.97;;
14066;SDS011;7108;42.684;23.350;2023-07-13T02:57:22;143.50;;;70.30;;
14066;SDS011;7108;42.684;23.350;2023-07-13T02:59:48;136.47;;;71.80;;
14066;SDS011;7108;42.684;23.350;2023-07-13T03:02:13;126.17;;;69.03;;
14066;SDS011;7108;42.684;23.350;2023-07-13T03:04:38;129.00;;;69.40;;
14066;SDS011;7108;42.684;23.350;2023-07-13T03:07:06;124.67;;;69.17;;
14066;SDS011;7108;42.684;23.350;2023-07-13T03:09:32;121.00;;;68.93;;
14066;SDS011;7108;42.684;23.350;2023-07-13T03:11:59;146.40;;;72.43;;
14066;SDS011;7108;42.684;23.350;2023-07-13T03:14:24;164.37;;;72.67;;
14066;SDS011;7108;42.684;23.350;2023-07-13T03:16:50;152.57;;;73.13;;
14066;SDS011;7108;42.684;23.350;2023-07-13T03:19:17;154.23;;;73.50;;
14066;SDS011;7108;42.684;23.350;2023-07-13T03:21:42;125.47;;;68.67;;
14066;SDS011;7108;42.684;23.350;2023-07-13T03:24:08;126.23;;;67.67;;
14066;SDS011;7108;42.684;23.350;2023-07-13T03:26:33;110.93;;;66.43;;
14066;SDS011;7108;42.684;23.350;2023-07-13T03:28:59;153.97;;;72.93;;
14066;SDS011;7108;42.684;23.350;2023-07-13T03:31:25;152.30;;;68.97;;
14066;SDS011;7108;42.684;23.350;2023-07-13T03:33:53;129.13;;;68.63;;
14066;SDS011;7108;42.684;23.350;2023-07-13T03:36:20;142.30;;;69.70;;
14066;SDS011;7108;42.684;23.350;2023-07-13T03:38:53;135.70;;;70.27;;
14066;SDS011;7108;42.684;23.350;2023-07-13T03:41:21;146.50;;;71.47;;
14066;SDS011;7108;42.684;23.350;2023-07-13T03:43:47;145.13;;;70.37;;
14066;SDS011;7108;42.684;23.350;2023-07-13T03:46:14;137.67;;;68.97;;
14066;SDS011;7108;42.684;23.350;2023-07-13T03:48:40;124.10;;;66.87;;
14066;SDS011;7108;42.684;23.350;2023-07-13T03:51:09;115.63;;;66.63;;
14066;SDS011;7108;42.684;23.350;2023-07-13T03:53:38;137.27;;;81.20;;
14066;SDS011;7108;42.684;23.350;2023-07-13T03:56:05;114.67;;;68.03;;
14066;SDS011;7108;42.684;23.350;2023-07-13T03:58:34;136.50;;;71.20;;
14066;SDS011;7108;42.684;23.350;2023-07-13T04:01:02;128.93;;;71.13;;
14066;SDS011;7108;42.684;23.350;2023-07-13T04:03:29;129.87;;;68.07;;
14066;SDS011;7108;42.684;23.350;2023-07-13T04:05:57;120.80;;;68.90;;
14066;SDS011;7108;42.684;23.350;2023-07-13T04:08:26;146.17;;;80.20;;
14066;SDS011;7108;42.684;23.350;2023-07-13T04:10:55;135.03;;;71.60;;
14066;SDS011;7108;42.684;23.350;2023-07-13T04:13:21;136.57;;;69.20;;
14066;SDS011;7108;42.684;23.350;2023-07-13T04:15:47;128.17;;;68.03;;
14066;SDS011;7108;42.684;23.350;2023-07-13T04:18:12;115.53;;;65.80;;
14066;SDS011;7108;42.684;23.350;2023-07-13T04:20:38;113.73;;;66.27;;
14066;SDS011;7108;42.684;23.350;2023-07-13T04:23:03;124.43;;;68.07;;
14066;SDS011;7108;42.684;23.350;2023-07-13T04:25:29;137.63;;;68.87;;
14066;SDS011;7108;42.684;23.350;2023-07-13T04:27:54;125.00;;;67.20;;
14066;SDS011;7108;42.684;23.350;2023-07-13T04:30:20;140.57;;;69.80;;
14066;SDS011;7108;42.684;23.350;2023-07-13T04:32:46;125.57;;;69.50;;
14066;SDS011;7108;42.684;23.350;2023-07-13T04:35:12;112.87;;;66.97;;
14066;SDS011;7108;42.684;23.350;2023-07-13T04:37:39;124.57;;;65.73;;
14066;SDS011;7108;42.684;23.350;2023-07-13T04:40:05;116.47;;;66.37;;
14066;SDS011;7108;42.684;23.350;2023-07-13T04:42:31;124.90;;;66.67;;
14066;SDS011;7108;42.684;23.350;2023-07-13T04:44:56;128.50;;;68.40;;
14066;SDS011;7108;42.684;23.350;2023-07-13T04:47:21;137.63;;;69.43;;
14066;SDS011;7108;42.684;23.350;2023-07-13T04:49:47;134.20;;;67.77;;
14066;SDS011;7108;42.684;23.350;2023-07-13T04:52:13;116.60;;;65.13;;
14066;SDS011;7108;42.684;23.350;2023-07-13T04:54:38;119.47;;;67.03;;
14066;SDS011;7108;42.684;23.350;2023-07-13T04:57:04;128.03;;;68.13;;
14066;SDS011;7108;42.684;23.350;2023-07-13T04:59:33;115.50;;;64.37;;
14066;SDS011;7108;42.684;23.350;2023-07-13T05:01:59;126.97;;;67.30;;
14066;SDS011;7108;42.684;23.350;2023-07-13T05:04:24;141.20;;;68.70;;
14066;SDS011;7108;42.684;23.350;2023-07-13T05:06:50;140.73;;;70.00;;
14066;SDS011;7108;42.684;23.350;2023-07-13T05:09:15;141.20;;;69.33;;
14066;SDS011;7108;42.684;23.350;2023-07-13T05:11:41;124.83;;;66.53;;
14066;SDS011;7108;42.684;23.350;2023-07-13T05:14:06;119.00;;;66.50;;
14066;SDS011;7108;42.684;23.350;2023-07-13T05:16:31;110.37;;;65.80;;
14066;SDS011;7108;42.684;23.350;2023-07-13T05:18:57;152.27;;;70.07;;
14066;SDS011;7108;42.684;23.350;2023-07-13T05:21:23;148.57;;;69.57;;
14066;SDS011;7108;42.684;23.350;2023-07-13T05:23:48;137.03;;;67.13;;
14066;SDS011;7108;42.684;23.350;2023-07-13T05:26:14;131.03;;;66.57;;
14066;SDS011;7108;42.684;23.350;2023-07-13T05:28:40;113.10;;;64.80;;
14066;SDS011;7108;42.684;23.350;2023-07-13T05:31:07;118.17;;;64.57;;
14066;SDS011;7108;42.684;23.350;2023-07-13T05:33:33;119.97;;;64.00;;
14066;SDS011;7108;42.684;23.350;2023-07-13T05:35:59;137.87;;;66.77;;
14066;SDS011;7108;42.684;23.350;2023-07-13T05:38:25;153.17;;;67.30;;
14066;SDS011;7108;42.684;23.350;2023-07-13T05:40:52;141.13;;;67.00;;
14066;SDS011;7108;42.684;23.350;2023-07-13T05:43:20;135.53;;;65.70;;
14066;SDS011;7108;42.684;23.350;2023-07-13T05:45:45;132.57;;;65.63;;
14066;SDS011;7108;42.684;23.350;2023-07-13T05:48:11;123.97;;;65.23;;
14066;SDS011;7108;42.684;23.350;2023-07-13T05:50:36;115.10;;;63.47;;
14066;SDS011;7108;42.684;23.350;2023-07-13T05:53:02;119.83;;;65.17;;
14066;SDS011;7108;42.684;23.350;2023-07-13T05:55:27;140.87;;;67.60;;
14066;SDS011;7108;42.684;23.350;2023-07-13T05:57:53;133.80;;;66.80;;
14066;SDS011;7108;42.684;23.350;2023-07-13T06:00:18;130.50;;;64.03;;
14066;SDS011;7108;42.684;23.350;2023-07-13T06:02:44;139.17;;;64.87;;
14066;SDS011;7108;42.684;23.350;2023-07-13T06:05:09;129.33;;;63.10;;
14066;SDS011;7108;42.684;23.350;2023-07-13T06:07:35;118.70;;;61.93;;
14066;SDS011;7108;42.684;23.350;2023-07-13T06:10:00;126.47;;;63.50;;
14066;SDS011;7108;42.684;23.350;2023-07-13T06:12:26;154.50;;;66.07;;
14066;SDS011;7108;42.684;23.350;2023-07-13T06:14:52;142.27;;;67.20;;
14066;SDS011;7108;42.684;23.350;2023-07-13T06:17:17;145.90;;;65.67;;
14066;SDS011;7108;42.684;23.350;2023-07-13T06:19:43;113.37;;;62.70;;
14066;SDS011;7108;42.684;23.350;2023-07-13T06:22:11;118.40;;;62.53;;
14066;SDS011;7108;42.684;23.350;2023-07-13T06:24:36;120.93;;;64.03;;
14066;SDS011;7108;42.684;23.350;2023-07-13T06:27:02;139.27;;;66.37;;
14066;SDS011;7108;42.684;23.350;2023-07-13T06:29:28;148.80;;;68.30;;
14066;SDS011;7108;42.684;23.350;2023-07-13T06:31:53;144.57;;;67.33;;
14066;SDS011;7108;42.684;23.350;2023-07-13T06:34:18;156.20;;;68.50;;
14066;SDS011;7108;42.684;23.350;2023-07-13T06:36:44;126.37;;;63.13;;
14066;SDS011;7108;42.684;23.350;2023-07-13T06:39:09;118.40;;;61.80;;
14066;SDS011;7108;42.684;23.350;2023-07-13T06:41:35;111.53;;;61.30;;
14066;SDS011;7108;42.684;23.350;2023-07-13T06:44:00;131.43;;;63.70;;
14066;SDS011;7108;42.684;23.350;2023-07-13T06:46:28;143.43;;;67.53;;
14066;SDS011;7108;42.684;23.350;2023-07-13T06:48:53;149.40;;;67.07;;
14066;SDS011;7108;42.684;23.350;2023-07-13T06:51:19;156.23;;;67.53;;
14066;SDS011;7108;42.684;23.350;2023-07-13T06:53:44;130.83;;;64.67;;
14066;SDS011;7108;42.684;23.350;2023-07-13T06:56:10;125.17;;;63.87;;
14066;SDS011;7108;42.684;23.350;2023-07-13T06:58:36;121.73;;;62.60;;
14066;SDS011;7108;42.684;23.350;2023-07-13T07:01:02;124.83;;;63.63;;
14066;SDS011;7108;42.684;23.350;2023-07-13T07:03:28;146.13;;;67.20;;
14066;SDS011;7108;42.684;23.350;2023-07-13T07:05:54;134.57;;;63.80;;
14066;SDS011;7108;42.684;23.350;2023-07-13T07:08:25;149.83;;;66.40;;
14066;SDS011;7108;42.684;23.350;2023-07-13T07:10:50;138.03;;;66.40;;
14066;SDS011;7108;42.684;23.350;2023-07-13T07:13:19;143.50;;;66.67;;
14066;SDS011;7108;42.684;23.350;2023-07-13T07:15:44;138.23;;;68.07;;
14066;SDS011;7108;42.684;23.350;2023-07-13T07:18:10;123.00;;;63.37;;
14066;SDS011;7108;42.684;23.350;2023-07-13T07:20:35;115.47;;;62.90;;
14066;SDS011;7108;42.684;23.350;2023-07-13T07:23:01;142.37;;;65.77;;
14066;SDS011;7108;42.684;23.350;2023-07-13T07:25:26;144.87;;;65.30;;
14066;SDS011;7108;42.684;23.350;2023-07-13T07:27:52;123.03;;;62.87;;
14066;SDS011;7108;42.684;23.350;2023-07-13T07:30:17;143.70;;;66.23;;
14066;SDS011;7108;42.684;23.350;2023-07-13T07:32:42;129.67;;;66.07;;
14066;SDS011;7108;42.684;23.350;2023-07-13T07:35:08;111.20;;;61.30;;
14066;SDS011;7108;42.684;23.350;2023-07-13T07:37:33;130.27;;;63.90;;
14066;SDS011;7108;42.684;23.350;2023-07-13T07:39:59;135.63;;;64.43;;
14066;SDS011;7108;42.684;23.350;2023-07-13T07:42:24;143.20;;;64.70;;
14066;SDS011;7108;42.684;23.350;2023-07-13T07:44:53;138.37;;;66.63;;
14066;SDS011;7108;42.684;23.350;2023-07-13T07:47:18;167.57;;;68.30;;
14066;SDS011;7108;42.684;23.350;2023-07-13T07:49:43;126.43;;;63.10;;
14066;SDS011;7108;42.684;23.350;2023-07-13T07:52:09;125.47;;;63.80;;
14066;SDS011;7108;42.684;23.350;2023-07-13T07:54:34;126.13;;;62.77;;
14066;SDS011;7108;42.684;23.350;2023-07-13T07:57:00;142.00;;;65.87;;
14066;SDS011;7108;42.684;23.350;2023-07-13T07:59:25;145.63;;;64.93;;
14066;SDS011;7108;42.684;23.350;2023-07-13T08:01:51;146.93;;;65.70;;
14066;SDS011;7108;42.684;23.350;2023-07-13T08:04:16;139.90;;;64.60;;
14066;SDS011;7108;42.684;23.350;2023-07-13T08:06:42;116.67;;;61.17;;
14066;SDS011;7108;42.684;23.350;2023-07-13T08:09:07;125.33;;;62.33;;
14066;SDS011;7108;42.684;23.350;2023-07-13T08:11:33;141.30;;;63.33;;
14066;SDS011;7108;42.684;23.350;2023-07-13T08:13:59;135.07;;;64.90;;
14066;SDS011;7108;42.684;23.350;2023-07-13T08:16:24;142.13;;;65.03;;
14066;SDS011;7108;42.684;23.350;2023-07-13T08:18:51;144.90;;;65.10;;
14066;SDS011;7108;42.684;23.350;2023-07-13T08:21:17;143.20;;;65.47;;
14066;SDS011;7108;42.684;23.350;2023-07-13T08:23:44;131.87;;;63.80;;
14066;SDS011;7108;42.684;23.350;2023-07-13T08:26:10;122.20;;;63.00;;
14066;SDS011;7108;42.684;23.350;2023-07-13T08:28:35;137.60;;;65.23;;
14066;SDS011;7108;42.684;23.350;2023-07-13T08:31:05;122.90;;;62.97;;
14066;SDS011;7108;42.684;23.350;2023-07-13T08:33:34;129.87;;;63.77;;
14066;SDS011;7108;42.684;23.350;2023-07-13T08:36:00;129.57;;;64.10;;
14066;SDS011;7108;42.684;23.350;2023-07-13T08:38:26;145.50;;;64.63;;
14066;SDS011;7108;42.684;23.350;2023-07-13T08:40:54;140.07;;;65.57;;
14066;SDS011;7108;42.684;23.350;2023-07-13T08:43:30;132.77;;;63.30;;
14066;SDS011;7108;42.684;23.350;2023-07-13T08:46:04;136.83;;;65.60;;
14066;SDS011;7108;42.684;23.350;2023-07-13T08:48:56;138.43;;;63.17;;
14066;SDS011;7108;42.684;23.350;2023-07-13T08:57:08;123.30;;;63.80;;
14066;SDS011;7108;42.684;23.350;2023-07-13T08:59:38;114.30;;;63.03;;
14066;SDS011;7108;42.684;23.350;2023-07-13T09:02:19;123.60;;;64.13;;
14066;SDS011;7108;42.684;23.350;2023-07-13T09:07:26;125.23;;;63.47;;
14066;SDS011;7108;42.684;23.350;2023-07-13T09:15:40;135.97;;;66.43;;
14066;SDS011;7108;42.684;23.350;2023-07-13T09:18:10;126.97;;;64.90;;
14066;SDS011;7108;42.684;23.350;2023-07-13T09:20:47;111.77;;;63.00;;
14066;SDS011;7108;42.684;23.350;2023-07-13T09:23:16;138.23;;;65.97;;
14066;SDS011;7108;42.684;23.350;2023-07-13T09:25:48;129.43;;;64.17;;
14066;SDS011;7108;42.684;23.350;2023-07-13T09:28:22;150.23;;;66.17;;
14066;SDS011;7108;42.684;23.350;2023-07-13T09:33:40;117.97;;;63.67;;
14066;SDS011;7108;42.684;23.350;2023-07-13T09:36:25;131.43;;;64.77;;
14066;SDS011;7108;42.684;23.350;2023-07-13T09:39:37;130.87;;;64.87;;
14066;SDS011;7108;42.684;23.350;2023-07-13T09:42:07;137.03;;;65.10;;
14066;SDS011;7108;42.684;23.350;2023-07-13T09:47:16;117.70;;;63.57;;
14066;SDS011;7108;42.684;23.350;2023-07-13T09:49:58;137.60;;;66.00;;
14066;SDS011;7108;42.684;23.350;2023-07-13T09:52:25;152.23;;;67.47;;
14066;SDS011;7108;42.684;23.350;2023-07-13T09:54:52;138.73;;;66.57;;
14066;SDS011;7108;42.684;23.350;2023-07-13T09:57:24;167.50;;;69.93;;
14066;SDS011;7108;42.684;23.350;2023-07-13T09:59:52;143.70;;;67.27;;
14066;SDS011;7108;42.684;23.350;2023-07-13T10:04:58;147.10;;;67.27;;
14066;SDS011;7108;42.684;23.350;2023-07-13T10:07:25;141.43;;;66.83;;
14066;SDS011;7108;42.684;23.350;2023-07-13T10:09:52;130.43;;;66.83;;
14066;SDS011;7108;42.684;23.350;2023-07-13T10:12:21;140.93;;;69.23;;
14066;SDS011;7108;42.684;23.350;2023-07-13T10:14:54;131.50;;;66.17;;
14066;SDS011;7108;42.684;23.350;2023-07-13T10:17:25;141.53;;;68.57;;
14066;SDS011;7108;42.684;23.350;2023-07-13T10:19:56;133.07;;;67.53;;
14066;SDS011;7108;42.684;23.350;2023-07-13T10:25:16;118.70;;;65.13;;
14066;SDS011;7108;42.684;23.350;2023-07-13T10:27:45;130.60;;;67.57;;
14066;SDS011;7108;42.684;23.350;2023-07-13T10:32:42;115.20;;;64.43;;
14066;SDS011;7108;42.684;23.350;2023-07-13T10:35:10;107.90;;;62.13;;
14066;SDS011;7108;42.684;23.350;2023-07-13T10:40:27;139.83;;;66.17;;
14066;SDS011;7108;42.684;23.350;2023-07-13T10:43:04;116.53;;;64.53;;
14066;SDS011;7108;42.684;23.350;2023-07-13T10:45:35;117.10;;;64.30;;
14066;SDS011;7108;42.684;23.350;2023-07-13T10:48:02;104.88;;;62.35;;
14066;SDS011;7108;42.684;23.350;2023-07-13T10:50:30;137.02;;;65.82;;
14066;SDS011;7108;42.684;23.350;2023-07-13T10:53:19;134.30;;;65.72;;
14066;SDS011;7108;42.684;23.350;2023-07-13T10:58:23;121.05;;;63.35;;
14066;SDS011;7108;42.684;23.350;2023-07-13T11:04:17;115.90;;;63.20;;
14066;SDS011;7108;42.684;23.350;2023-07-13T11:06:30;135.75;;;65.40;;
14066;SDS011;7108;42.684;23.350;2023-07-13T11:09:43;130.82;;;66.25;;
14066;SDS011;7108;42.684;23.350;2023-07-13T11:11:46;120.18;;;64.78;;
14066;SDS011;7108;42.684;23.350;2023-07-13T11:14:29;113.05;;;63.97;;
14066;SDS011;7108;42.684;23.350;2023-07-13T11:22:44;119.10;;;64.65;;
14066;SDS011;7108;42.684;23.350;2023-07-13T11:30:36;120.70;;;64.32;;
14066;SDS011;7108;42.684;23.350;2023-07-13T11:33:13;115.15;;;65.50;;
14066;SDS011;7108;42.684;23.350;2023-07-13T11:38:35;117.07;;;65.47;;
14066;SDS011;7108;42.684;23.350;2023-07-13T11:41:04;116.13;;;63.80;;
14066;SDS011;7108;42.684;23.350;2023-07-13T11:43:32;120.55;;;65.15;;
14066;SDS011;7108;42.684;23.350;2023-07-13T11:46:11;146.05;;;70.18;;
14066;SDS011;7108;42.684;23.350;2023-07-13T11:48:47;113.75;;;64.50;;
14066;SDS011;7108;42.684;23.350;2023-07-13T11:51:29;121.32;;;66.57;;
14066;SDS011;7108;42.684;23.350;2023-07-13T11:53:58;139.27;;;67.82;;
14066;SDS011;7108;42.684;23.350;2023-07-13T11:56:27;138.63;;;69.75;;
14066;SDS011;7108;42.684;23.350;2023-07-13T11:59:02;133.80;;;68.90;;
14066;SDS011;7108;42.684;23.350;2023-07-13T12:01:31;138.98;;;67.68;;
14066;SDS011;7108;42.684;23.350;2023-07-13T12:03:59;130.40;;;66.22;;
14066;SDS011;7108;42.684;23.350;2023-07-13T12:09:00;129.13;;;67.07;;
14066;SDS011;7108;42.684;23.350;2023-07-13T12:11:28;122.70;;;67.13;;
14066;SDS011;7108;42.684;23.350;2023-07-13T12:13:54;120.40;;;66.95;;
14066;SDS011;7108;42.684;23.350;2023-07-13T12:18:52;121.15;;;66.63;;
14066;SDS011;7108;42.684;23.350;2023-07-13T12:21:19;125.47;;;66.43;;
14066;SDS011;7108;42.684;23.350;2023-07-13T12:23:49;120.80;;;66.15;;
14066;SDS011;7108;42.684;23.350;2023-07-13T12:26:17;113.82;;;63.13;;
14066;SDS011;7108;42.684;23.350;2023-07-13T12:36:38;144.05;;;67.00;;
14066;SDS011;7108;42.684;23.350;2023-07-13T12:39:24;114.80;;;63.58;;
14066;SDS011;7108;42.684;23.350;2023-07-13T12:42:10;114.38;;;63.83;;
14066;SDS011;7108;42.684;23.350;2023-07-13T12:44:53;113.57;;;62.10;;
14066;SDS011;7108;42.684;23.350;2023-07-13T12:47:22;128.70;;;65.80;;
14066;SDS011;7108;42.684;23.350;2023-07-13T12:49:49;106.43;;;62.88;;
14066;SDS011;7108;42.684;23.350;2023-07-13T12:52:27;108.47;;;64.00;;
14066;SDS011;7108;42.684;23.350;2023-07-13T12:54:56;116.07;;;64.30;;
14066;SDS011;7108;42.684;23.350;2023-07-13T12:57:24;125.65;;;64.63;;
14066;SDS011;7108;42.684;23.350;2023-07-13T12:59:54;112.80;;;63.17;;
14066;SDS011;7108;42.684;23.350;2023-07-13T13:02:29;112.80;;;62.78;;
14066;SDS011;7108;42.684;23.350;2023-07-13T13:04:59;119.13;;;64.88;;
14066;SDS011;7108;42.684;23.350;2023-07-13T13:07:25;119.60;;;65.65;;
14066;SDS011;7108;42.684;23.350;2023-07-13T13:09:51;118.63;;;64.90;;
14066;SDS011;7108;42.684;23.350;2023-07-13T13:12:18;110.85;;;64.03;;
14066;SDS011;7108;42.684;23.350;2023-07-13T13:14:45;113.22;;;64.28;;
14066;SDS011;7108;42.684;23.350;2023-07-13T13:17:20;116.25;;;64.88;;
14066;SDS011;7108;42.684;23.350;2023-07-13T13:19:49;107.25;;;62.35;;
14066;SDS011;7108;42.684;23.350;2023-07-13T13:22:18;118.93;;;63.60;;
14066;SDS011;7108;42.684;23.350;2023-07-13T13:24:43;125.53;;;66.63;;
14066;SDS011;7108;42.684;23.350;2023-07-13T13:27:18;123.68;;;66.30;;
14066;SDS011;7108;42.684;23.350;2023-07-13T13:29:47;118.57;;;63.92;;
14066;SDS011;7108;42.684;23.350;2023-07-13T13:32:15;115.72;;;63.35;;
14066;SDS011;7108;42.684;23.350;2023-07-13T13:34:41;130.63;;;66.80;;
14066;SDS011;7108;42.684;23.350;2023-07-13T13:37:25;117.32;;;63.67;;
14066;SDS011;7108;42.684;23.350;2023-07-13T13:39:51;113.28;;;63.97;;
14066;SDS011;7108;42.684;23.350;2023-07-13T13:42:18;116.47;;;64.97;;
14066;SDS011;7108;42.684;23.350;2023-07-13T13:44:46;112.03;;;64.07;;
14066;SDS011;7108;42.684;23.350;2023-07-13T13:47:32;119.55;;;64.80;;
14066;SDS011;7108;42.684;23.350;2023-07-13T13:49:59;133.32;;;66.18;;
14066;SDS011;7108;42.684;23.350;2023-07-13T13:52:25;113.05;;;65.10;;
14066;SDS011;7108;42.684;23.350;2023-07-13T13:54:51;110.25;;;62.53;;
14066;SDS011;7108;42.684;23.350;2023-07-13T13:57:21;111.65;;;63.33;;
14066;SDS011;7108;42.684;23.350;2023-07-13T13:59:48;121.60;;;63.75;;
14066;SDS011;7108;42.684;23.350;2023-07-13T14:02:24;104.22;;;61.35;;
14066;SDS011;7108;42.684;23.350;2023-07-13T14:04:57;134.05;;;66.18;;
14066;SDS011;7108;42.684;23.350;2023-07-13T14:07:24;113.28;;;62.72;;
14066;SDS011;7108;42.684;23.350;2023-07-13T14:09:51;115.93;;;63.58;;
14066;SDS011;7108;42.684;23.350;2023-07-13T14:12:27;129.70;;;65.07;;
14066;SDS011;7108;42.684;23.350;2023-07-13T14:14:54;118.70;;;63.67;;
14066;SDS011;7108;42.684;23.350;2023-07-13T14:17:24;130.43;;;63.47;;
14066;SDS011;7108;42.684;23.350;2023-07-13T14:19:52;120.38;;;64.18;;
14066;SDS011;7108;42.684;23.350;2023-07-13T14:22:22;111.57;;;62.92;;
14066;SDS011;7108;42.684;23.350;2023-07-13T14:24:49;114.95;;;62.22;;
14066;SDS011;7108;42.684;23.350;2023-07-13T14:27:16;119.40;;;63.13;;
14066;SDS011;7108;42.684;23.350;2023-07-13T14:29:42;125.45;;;62.58;;
14066;SDS011;7108;42.684;23.350;2023-07-13T14:32:10;122.43;;;64.10;;
14066;SDS011;7108;42.684;23.350;2023-07-13T14:34:37;120.30;;;64.32;;
14066;SDS011;7108;42.684;23.350;2023-07-13T14:37:03;136.80;;;65.50;;
14066;SDS011;7108;42.684;23.350;2023-07-13T14:39:29;125.35;;;64.55;;
14066;SDS011;7108;42.684;23.350;2023-07-13T14:41:56;119.38;;;63.72;;
14066;SDS011;7108;42.684;23.350;2023-07-13T14:44:24;119.50;;;62.50;;
14066;SDS011;7108;42.684;23.350;2023-07-13T14:46:51;115.45;;;64.57;;
14066;SDS011;7108;42.684;23.350;2023-07-13T14:51:46;131.75;;;63.67;;
14066;SDS011;7108;42.684;23.350;2023-07-13T14:54:11;132.75;;;65.18;;
14066;SDS011;7108;42.684;23.350;2023-07-13T14:56:37;145.82;;;67.65;;
14066;SDS011;7108;42.684;23.350;2023-07-13T14:59:02;121.07;;;64.85;;
14066;SDS011;7108;42.684;23.350;2023-07-13T15:01:29;125.72;;;64.35;;
14066;SDS011;7108;42.684;23.350;2023-07-13T15:03:55;117.03;;;64.45;;
14066;SDS011;7108;42.684;23.350;2023-07-13T15:06:23;110.70;;;63.25;;
14066;SDS011;7108;42.684;23.350;2023-07-13T15:08:48;119.97;;;63.38;;
14066;SDS011;7108;42.684;23.350;2023-07-13T15:11:13;119.90;;;62.78;;
14066;SDS011;7108;42.684;23.350;2023-07-13T15:13:39;139.80;;;67.13;;
14066;SDS011;7108;42.684;23.350;2023-07-13T15:16:16;120.32;;;63.92;;
14066;SDS011;7108;42.684;23.350;2023-07-13T15:18:46;129.63;;;65.43;;
14066;SDS011;7108;42.684;23.350;2023-07-13T15:21:14;126.75;;;64.80;;
14066;SDS011;7108;42.684;23.350;2023-07-13T15:23:44;121.75;;;64.30;;